createdAt,value
2018-02-16T00:01:52.150Z,93.50
2018-02-16T00:06:55.344Z,93.70
2018-02-16T00:11:58.650Z,93.70
2018-02-16T00:17:02.605Z,93.60
2018-02-16T00:22:08.209Z,93.60
2018-02-16T00:27:12.663Z,93.60
2018-02-16T00:32:15.886Z,93.40
2018-02-16T00:37:19.041Z,93.50
2018-02-16T00:42:22.162Z,94.10
2018-02-16T00:47:26.103Z,93.70
2018-02-16T00:52:30.013Z,93.80
2018-02-16T00:57:33.391Z,93.20
2018-02-16T01:02:37.537Z,93.20
2018-02-16T01:07:41.082Z,93.20
2018-02-16T01:12:44.910Z,93.10
2018-02-16T01:17:48.877Z,93.20
2018-02-16T01:22:52.876Z,93.40
2018-02-16T01:27:57.956Z,93.40
2018-02-16T01:33:02.024Z,93.40
2018-02-16T01:38:05.225Z,93.40
2018-02-16T01:43:08.388Z,93.60
2018-02-16T01:48:13.203Z,93.60
2018-02-16T01:53:17.222Z,93.40
2018-02-16T01:58:21.250Z,93.20
2018-02-16T02:03:24.395Z,93.20
2018-02-16T02:08:29.247Z,93.10
2018-02-16T02:13:32.424Z,93.20
2018-02-16T02:23:40.967Z,93.60
2018-02-16T02:28:44.063Z,93.70
2018-02-16T02:33:49.611Z,93.90
2018-02-16T02:38:53.019Z,94.00
2018-02-16T02:43:56.932Z,94.10
2018-02-16T02:49:00.876Z,94.30
2018-02-16T02:54:04.781Z,94.30
2018-02-16T02:59:10.104Z,94.00
2018-02-16T03:04:13.311Z,93.90
2018-02-16T03:09:18.199Z,93.80
2018-02-16T03:14:22.103Z,94.10
2018-02-16T03:19:25.219Z,93.80
2018-02-16T03:24:29.107Z,93.80
2018-02-16T03:29:33.117Z,93.80
2018-02-16T03:34:36.279Z,93.60
2018-02-16T03:39:39.467Z,93.50
2018-02-16T03:44:43.800Z,93.30
2018-02-16T03:49:46.968Z,93.40
2018-02-16T03:54:50.542Z,93.50
2018-02-16T03:59:54.407Z,93.40
2018-02-16T04:04:57.706Z,93.40
2018-02-16T04:10:01.239Z,93.30
2018-02-16T04:15:04.706Z,93.20
2018-02-16T04:20:07.786Z,93.10
2018-02-16T04:25:10.863Z,93.20
2018-02-16T04:30:14.731Z,93.30
2018-02-16T04:35:17.900Z,93.00
2018-02-16T04:40:23.128Z,92.90
2018-02-16T04:45:27.070Z,93.10
2018-02-16T04:50:31.120Z,93.10
2018-02-16T04:55:35.352Z,92.90
2018-02-16T05:00:39.213Z,92.80
2018-02-16T05:10:46.743Z,93.10
2018-02-16T05:15:49.843Z,93.20
2018-02-16T05:20:52.945Z,93.20
2018-02-16T05:25:57.161Z,93.20
2018-02-16T05:31:01.400Z,93.00
2018-02-16T05:41:10.473Z,93.10
2018-02-16T05:46:14.711Z,93.00
2018-02-16T05:51:18.248Z,93.00
2018-02-16T05:56:21.721Z,93.00
2018-02-16T06:01:26.312Z,92.90
2018-02-16T06:06:30.165Z,93.00
2018-02-16T06:11:33.243Z,92.80
2018-02-16T06:16:36.729Z,92.70
2018-02-16T06:21:40.987Z,92.60
2018-02-16T06:31:49.507Z,92.90
2018-02-16T06:47:02.608Z,92.70
2018-02-16T06:52:06.094Z,92.70
2018-02-16T06:57:09.182Z,92.60
2018-02-16T07:02:13.024Z,92.60
2018-02-16T07:12:20.936Z,92.60
2018-02-16T07:17:25.569Z,92.60
2018-02-16T07:22:29.052Z,92.70
2018-02-16T07:27:32.543Z,92.80
2018-02-16T07:32:35.636Z,92.80
2018-02-16T07:37:39.483Z,92.80
2018-02-16T07:42:42.623Z,92.70
2018-02-16T07:52:50.539Z,92.60
2018-02-16T07:57:53.632Z,92.90
2018-02-16T08:08:02.655Z,90.50
2018-02-16T08:13:06.864Z,88.10
2018-02-16T08:18:10.719Z,84.60
2018-02-16T08:23:14.943Z,83.00
2018-02-16T08:28:18.795Z,77.20
2018-02-16T08:33:22.279Z,73.20
2018-02-16T08:38:25.808Z,66.40
2018-02-16T08:43:29.684Z,62.40
2018-02-16T08:48:33.176Z,63.50
2018-02-16T08:53:37.780Z,61.50
2018-02-16T08:58:41.671Z,60.40
2018-02-16T09:03:45.554Z,62.10
2018-02-16T09:08:48.644Z,62.30
2018-02-16T09:18:56.180Z,62.30
2018-02-16T09:24:00.790Z,66.80
2018-02-16T09:29:04.268Z,68.00
2018-02-16T09:34:07.392Z,69.40
2018-02-16T09:39:14.660Z,71.70
2018-02-16T09:44:17.744Z,73.70
2018-02-16T09:49:21.232Z,76.00
2018-02-16T09:54:25.091Z,75.90
2018-02-16T09:59:28.584Z,78.00
2018-02-16T10:04:33.167Z,77.90
2018-02-16T10:09:36.657Z,78.00
2018-02-16T10:19:45.314Z,75.80
2018-02-16T10:24:49.551Z,77.00
2018-02-16T10:29:53.076Z,74.80
2018-02-16T10:34:56.919Z,77.60
2018-02-16T10:40:01.128Z,78.00
2018-02-16T10:45:04.628Z,78.80
2018-02-16T10:55:12.943Z,79.10
2018-02-16T11:11:02.596Z,76.00
2018-02-16T11:16:07.162Z,75.50
2018-02-16T11:36:23.579Z,75.30
2018-02-16T11:46:31.845Z,76.40
2018-02-16T11:51:35.335Z,75.20
2018-02-16T11:56:38.408Z,74.00
2018-02-16T12:01:41.880Z,72.40
2018-02-16T12:06:46.471Z,70.30
2018-02-16T12:11:50.332Z,69.70
2018-02-16T12:16:54.559Z,69.80
2018-02-16T12:21:57.655Z,69.70
2018-02-16T12:27:01.127Z,67.10
2018-02-16T12:32:04.255Z,67.80
2018-02-16T12:37:07.336Z,66.60
2018-02-16T12:42:12.692Z,67.70
2018-02-16T12:47:16.546Z,68.50
2018-02-16T12:52:20.760Z,68.30
2018-02-16T12:57:23.900Z,67.90
2018-02-16T13:02:26.996Z,66.40
2018-02-16T13:07:31.220Z,66.30
2018-02-16T13:12:34.296Z,65.80
2018-02-16T13:17:37.664Z,66.00
2018-02-16T13:22:41.504Z,66.40
2018-02-16T13:32:49.414Z,64.90
2018-02-16T13:42:57.759Z,63.90
2018-02-16T13:48:01.604Z,63.30
2018-02-16T13:53:04.672Z,63.30
2018-02-16T13:58:07.755Z,64.60
2018-02-16T14:13:19.707Z,60.30
2018-02-16T14:18:22.828Z,59.80
2018-02-16T14:23:25.953Z,58.10
2018-02-16T14:28:29.827Z,57.50
2018-02-16T14:43:41.771Z,56.80
2018-02-16T14:48:46.614Z,55.80
2018-02-16T14:53:50.501Z,58.80
2018-02-16T14:58:53.942Z,58.80
2018-02-16T15:03:57.035Z,60.10
2018-02-16T15:09:00.108Z,59.20
2018-02-16T15:14:03.939Z,57.40
2018-02-16T15:19:08.150Z,57.40
2018-02-16T15:24:12.351Z,56.50
2018-02-16T15:29:16.563Z,55.30
2018-02-16T15:34:19.694Z,55.80
2018-02-16T15:39:23.147Z,56.10
2018-02-16T15:44:26.236Z,57.30
2018-02-16T15:49:29.312Z,58.30
2018-02-16T15:54:32.788Z,59.70
2018-02-16T15:59:36.624Z,61.10
2018-02-16T16:04:39.916Z,62.00
2018-02-16T16:09:44.520Z,61.70
2018-02-16T16:14:47.611Z,61.90
2018-02-16T16:19:50.714Z,62.30
2018-02-16T16:24:55.510Z,61.60
2018-02-16T16:29:59.357Z,62.40
2018-02-16T16:35:03.196Z,62.50
2018-02-16T16:40:07.406Z,62.40
2018-02-16T16:55:20.336Z,66.80
2018-02-16T17:00:23.424Z,65.60
2018-02-16T17:05:26.495Z,66.70
2018-02-16T17:15:34.767Z,69.40
2018-02-16T17:25:43.834Z,70.30
2018-02-16T17:30:47.132Z,72.40
2018-02-16T17:40:55.045Z,74.00
2018-02-16T17:45:58.521Z,74.90
2018-02-16T17:56:07.555Z,75.30
2018-02-16T18:01:10.679Z,77.30
2018-02-16T18:06:14.557Z,78.50
2018-02-16T18:11:17.633Z,78.30
2018-02-16T18:16:21.113Z,77.20
2018-02-16T18:21:24.592Z,77.10
2018-02-16T18:26:28.810Z,77.50
2018-02-16T18:31:32.653Z,78.00
2018-02-16T18:36:36.867Z,78.50
2018-02-16T18:41:40.739Z,80.30
2018-02-16T18:46:43.820Z,79.80
2018-02-16T18:51:46.908Z,79.30
2018-02-16T18:56:50.759Z,80.50
2018-02-16T19:01:53.833Z,79.70
2018-02-16T19:06:58.040Z,80.30
2018-02-16T19:12:01.283Z,80.60
2018-02-16T19:17:04.802Z,81.20
2018-02-16T19:22:08.640Z,82.00
2018-02-16T19:32:17.894Z,82.00
2018-02-16T19:42:26.452Z,81.90
2018-02-16T19:47:29.980Z,82.00
2018-02-16T19:52:33.061Z,82.70
2018-02-16T19:57:36.183Z,83.50
2018-02-16T20:02:39.279Z,84.50
2018-02-16T20:07:43.701Z,84.90
2018-02-16T20:12:46.868Z,85.50
2018-02-16T20:17:49.956Z,85.80
2018-02-16T20:22:53.129Z,86.60
2018-02-16T20:27:56.216Z,86.60
2018-02-16T20:33:00.011Z,86.00
2018-02-16T20:38:03.196Z,86.10
2018-02-16T20:43:06.284Z,86.60
2018-02-16T20:48:09.373Z,86.30
2018-02-16T20:53:12.857Z,86.00
2018-02-16T20:58:16.751Z,86.50
2018-02-16T21:03:21.042Z,86.20
2018-02-16T21:08:24.122Z,86.50
2018-02-16T21:13:27.976Z,87.20
2018-02-16T21:18:31.072Z,87.50
2018-02-16T21:23:34.159Z,87.70
2018-02-16T21:33:42.440Z,87.70
2018-02-16T21:43:50.741Z,88.60
2018-02-16T21:48:53.821Z,88.40
2018-02-16T21:53:57.681Z,88.10
2018-02-16T21:59:01.138Z,88.10
2018-02-16T22:04:04.607Z,87.40
2018-02-16T22:09:08.087Z,87.30
2018-02-16T22:14:11.583Z,87.30
2018-02-16T22:19:15.463Z,87.60
2018-02-16T22:24:18.920Z,86.40
2018-02-16T22:44:36.079Z,87.40
2018-02-16T22:49:39.167Z,88.10
2018-02-16T22:54:43.391Z,88.20
2018-02-16T22:59:46.499Z,88.20
2018-02-16T23:09:54.033Z,88.60
2018-02-16T23:14:57.111Z,88.30
2018-02-16T23:20:01.335Z,88.60
2018-02-16T23:25:05.928Z,88.90
2018-02-16T23:30:09.644Z,88.90
2018-02-16T23:45:22.293Z,88.60
2018-02-16T23:55:30.485Z,87.90
